2V6

Yuma Municipalcipal Airport

Yuma, Colorado, USA
METAR K2V6 230914Z AUTO 19006KT 10SM CLR 00/M01 A3013 RMK AO2
Observed Flight Rules
Apr-23 @ 09:14 UTC (24 minutes ago) Visual Flight Rules
Wind Visibility Clouds
190° at 6 knots 10 miles
  • Clear skies
Temperatures Readings
Current 0°C / 32°F
Dewpoint -1°C / 30°F
Humidity 93%
Altimeter 30.13" Hg
Pressure 1020 hPa
Elevation 1261
METAR K2V6 230914Z AUTO 19006KT 10SM CLR 00/M01 A3013 RMK AO2
Observed Flight Rules
Apr-23 @ 09:14 UTC
(24 minutes ago)
VFR
Wind Visibility
190° at 6 knots 10 miles
Clouds
  • Clear skies
Temperature Dewpoint
0°C / 32°F -1°C / 30°F
Humidity Altimeter Pressure
93% 30.13" Hg 1020 hPa